FYGA4: White River At Fayetteville, AR

                                SHEF ID:       FYGA4     White River near Fayetteville, A
STATION TYPE: Stream Gauge

PRECIP STAGE RIV-FLOW WTR-TEMP DIS-OXY PH CONDUCT BAT-LOAD
in ft cfs F mg/l su umho/cm volt
Ccp-Rev Ccp-Rev Ccp-Rev Ccp-Rev Ccp-Rev Ccp-Rev Ccp-Rev Ccp-Rev
(America/Chicago)
09/20 00:00 0.00 2.05 54 77.95 6.08 7.86 222 12.65
09/20 01:00 0.00 2.04 53 77.52 6.02 7.83 223 12.65
09/20 02:00 0.00 2.03 52 77.11 5.89 7.81 223 12.65
09/20 03:00 0.00 2.03 52 76.64 5.86 7.79 223 12.57
09/20 04:00 0.00 2.01 49 76.19 5.77 7.77 224 12.57
09/20 05:00 0.00 2.01 49 75.76 5.76 7.76 225 12.57
09/20 06:00 0.00 2.01 49 75.42 5.73 7.74 225 12.49
09/20 07:00 0.00 1.99 46 75.13 5.72 7.74 225 12.49
09/20 08:00 0.01 1.99 46 74.86 5.70 7.73 225 12.41
09/20 09:00 0.67 1.96 43 74.12 6.21 7.78 215 12.41
09/20 10:00 0.30 2.08 59 73.89 6.43 7.78 215 12.41
09/20 11:00 0.13 2.41 118 74.08 6.57 7.78 194 12.41
09/20 12:00 0.02 2.45 127 74.68 7.05 7.79 172 13.21
09/20 13:00 0.86 2.40 116 74.17 7.38 7.83 161 14.08
09/20 14:00 0.24 2.61 167 74.41 7.19 7.83 176 12.81
09/20 15:00 0.06 3.44 483 73.80 7.13 7.79 206 12.81
09/20 16:00 0.55 4.77 1445 73.08 7.17 7.78 199 12.81
09/20 17:00 0.00 5.29 1995 73.24 7.43 7.80 177 13.29
09/20 18:00 0.00 5.41 2137 73.53 7.58 7.80 143 13.21
09/20 19:00 0.00 5.50 2248 73.54 7.56 7.73 140 13.05
09/20 20:00 0.00 5.37 2089 73.53 7.43 7.67 146 12.81
09/20 21:00 0.00 5.10 1782 73.44 7.38 7.64 151 12.73
09/20 22:00 0.00 4.84 1513 73.71 7.54 7.65 146 12.73
09/20 23:00 0.00 4.60 1287 73.67 7.56 7.66 146 12.65
Data processed at Sun 21Sep2025 04:10 GMT

Parsing this webpage?

Checkout our new Data API! CWMSDataAPI (CDA)

Timeseries IDs (TSIDs)

TSIDs used from left to right in the data table
FAYE.Precip-Inc.Total.1Hour.1Hour.Ccp-Rev
FAYE.Stage.Inst.1Hour.0.Ccp-Rev
FAYE.Flow.Inst.1Hour.0.Ccp-Rev
FAYE.Temp-Water.Inst.1Hour.0.Ccp-Rev
FAYE.Conc-DO.Inst.1Hour.0.Ccp-Rev
FAYE.pH.Inst.1Hour.0.Ccp-Rev
FAYE.Cond-Water.Inst.1Hour.0.Ccp-Rev
FAYE.Volt-Battery Load.Inst.1Hour.0.Ccp-Rev

                            

All information presented herein is the property of the government of the United States of America and may be revised or deleted at any time without prior notice. Dissemination of this information without the expressed written consent of the Public Affairs Office, Tulsa District U.S. Army Corps of Engineers is strictly prohibited. These data are gathered electronically and, as presented, have NOT undergone any form of quality control. These data are NOT guaranteed to be valid or correct.